Keith, United Kingdom
Current Conditions -  °F | °C
As of 4:50 AM on Sunday 26 Oct 2014 (Local Time) from EGQS Reporting Station
Broken Clouds Broken Clouds  
Wind Chill: 54°   Ceiling: 6000
Heat Index: 54°   Visibility: 6mi
Dew Point: 54°   Wind: 36mph
Humidity: 100%   Direction: 250°WSW
Pressure: 29.41"   Gusts: 49mph
Location:  57.54°N, 2.95°W
Report Text: EGQS 260350Z 25031G43KT 9999 FEW038 BKN060 BKN250 12/12 Q0996 BLU
Loading
Personal Weather Stations






























Interactive Weather Map
Tropical Storm Tracking
New forecast layout! Learn more

10-Day Weather Forecast

Advertisements
Track Severe Weather on mobile